sensor_id;sensor_type;location;lat;lon;timestamp;pressure;altitude;pressure_sealevel;temperature;humidity
46756;BME280;32506;52.826;-1.192;2023-12-29T00:00:34;99496.00;;;8.17;67.02
46756;BME280;32506;52.826;-1.192;2023-12-29T00:03:00;99491.69;;;8.16;67.23
46756;BME280;32506;52.826;-1.192;2023-12-29T00:05:25;99490.06;;;8.15;66.87
46756;BME280;32506;52.826;-1.192;2023-12-29T00:07:52;99483.34;;;8.12;67.02
46756;BME280;32506;52.826;-1.192;2023-12-29T00:10:17;99501.16;;;8.12;66.78
46756;BME280;32506;52.826;-1.192;2023-12-29T00:12:42;99512.03;;;8.10;66.73
46756;BME280;32506;52.826;-1.192;2023-12-29T00:15:08;99513.88;;;8.10;66.85
46756;BME280;32506;52.826;-1.192;2023-12-29T00:17:34;99507.97;;;8.07;66.68
46756;BME280;32506;52.826;-1.192;2023-12-29T00:20:04;99510.88;;;8.06;66.76
46756;BME280;32506;52.826;-1.192;2023-12-29T00:22:29;99512.69;;;8.05;66.87
46756;BME280;32506;52.826;-1.192;2023-12-29T00:24:55;99522.53;;;8.05;66.74
46756;BME280;32506;52.826;-1.192;2023-12-29T00:27:20;99513.75;;;8.04;66.83
46756;BME280;32506;52.826;-1.192;2023-12-29T00:29:46;99515.81;;;8.02;67.09
46756;BME280;32506;52.826;-1.192;2023-12-29T00:32:11;99515.00;;;8.02;66.83
46756;BME280;32506;52.826;-1.192;2023-12-29T00:34:37;99512.34;;;8.02;67.05
46756;BME280;32506;52.826;-1.192;2023-12-29T00:37:02;99507.25;;;8.00;67.19
46756;BME280;32506;52.826;-1.192;2023-12-29T00:39:28;99509.31;;;7.98;66.94
46756;BME280;32506;52.826;-1.192;2023-12-29T00:41:55;99508.50;;;7.98;67.10
46756;BME280;32506;52.826;-1.192;2023-12-29T00:44:24;99498.88;;;7.97;67.06
46756;BME280;32506;52.826;-1.192;2023-12-29T00:46:50;99494.59;;;7.96;67.57
46756;BME280;32506;52.826;-1.192;2023-12-29T00:49:15;99499.13;;;7.95;67.45
46756;BME280;32506;52.826;-1.192;2023-12-29T00:51:40;99504.44;;;7.95;67.48
46756;BME280;32506;52.826;-1.192;2023-12-29T00:54:06;99502.81;;;7.94;67.38
46756;BME280;32506;52.826;-1.192;2023-12-29T00:56:32;99486.03;;;7.94;67.57
46756;BME280;32506;52.826;-1.192;2023-12-29T00:58:58;99471.09;;;7.93;67.05
46756;BME280;32506;52.826;-1.192;2023-12-29T01:01:23;99480.91;;;7.92;67.57
46756;BME280;32506;52.826;-1.192;2023-12-29T01:03:49;99477.44;;;7.92;67.50
46756;BME280;32506;52.826;-1.192;2023-12-29T01:06:14;99493.41;;;7.92;67.32
46756;BME280;32506;52.826;-1.192;2023-12-29T01:08:40;99488.09;;;7.92;67.28
46756;BME280;32506;52.826;-1.192;2023-12-29T01:11:05;99488.31;;;7.90;67.37
46756;BME280;32506;52.826;-1.192;2023-12-29T01:13:31;99490.97;;;7.90;67.38
46756;BME280;32506;52.826;-1.192;2023-12-29T01:15:57;99489.34;;;7.89;67.19
46756;BME280;32506;52.826;-1.192;2023-12-29T01:18:22;99493.88;;;7.88;67.16
46756;BME280;32506;52.826;-1.192;2023-12-29T01:20:47;99488.53;;;7.88;67.04
46756;BME280;32506;52.826;-1.192;2023-12-29T01:23:13;99487.13;;;7.86;67.34
46756;BME280;32506;52.826;-1.192;2023-12-29T01:25:38;99488.97;;;7.85;67.24
46756;BME280;32506;52.826;-1.192;2023-12-29T01:28:04;99488.16;;;7.85;67.25
46756;BME280;32506;52.826;-1.192;2023-12-29T01:30:30;99479.38;;;7.84;67.16
46756;BME280;32506;52.826;-1.192;2023-12-29T01:32:55;99476.72;;;7.84;67.64
46756;BME280;32506;52.826;-1.192;2023-12-29T01:35:20;99475.09;;;7.83;67.00
46756;BME280;32506;52.826;-1.192;2023-12-29T01:37:46;99486.75;;;7.82;67.18
46756;BME280;32506;52.826;-1.192;2023-12-29T01:40:12;99499.25;;;7.82;67.12
46756;BME280;32506;52.826;-1.192;2023-12-29T01:42:37;99490.44;;;7.81;67.28
46756;BME280;32506;52.826;-1.192;2023-12-29T01:45:03;99490.44;;;7.81;67.44
46756;BME280;32506;52.826;-1.192;2023-12-29T01:47:29;99498.44;;;7.81;67.36
46756;BME280;32506;52.826;-1.192;2023-12-29T01:49:55;99505.59;;;7.81;67.60
46756;BME280;32506;52.826;-1.192;2023-12-29T01:52:20;99502.94;;;7.81;67.65
46756;BME280;32506;52.826;-1.192;2023-12-29T01:54:48;99497.63;;;7.81;67.55
46756;BME280;32506;52.826;-1.192;2023-12-29T01:57:14;99506.41;;;7.81;67.53
46756;BME280;32506;52.826;-1.192;2023-12-29T01:59:40;99505.59;;;7.81;67.25
46756;BME280;32506;52.826;-1.192;2023-12-29T02:02:06;99493.09;;;7.81;67.51
46756;BME280;32506;52.826;-1.192;2023-12-29T02:04:31;99502.94;;;7.81;67.44
46756;BME280;32506;52.826;-1.192;2023-12-29T02:06:57;99499.47;;;7.80;68.03
46756;BME280;32506;52.826;-1.192;2023-12-29T02:09:23;99506.41;;;7.81;67.73
46756;BME280;32506;52.826;-1.192;2023-12-29T02:11:48;99497.63;;;7.81;67.44
46756;BME280;32506;52.826;-1.192;2023-12-29T02:14:18;99496.81;;;7.80;67.54
46756;BME280;32506;52.826;-1.192;2023-12-29T02:19:41;99505.81;;;7.79;67.37
46756;BME280;32506;52.826;-1.192;2023-12-29T02:22:08;99498.88;;;7.78;67.29
46756;BME280;32506;52.826;-1.192;2023-12-29T02:24:34;99504.19;;;7.78;67.70
46756;BME280;32506;52.826;-1.192;2023-12-29T02:27:22;99502.56;;;7.77;67.43
46756;BME280;32506;52.826;-1.192;2023-12-29T02:30:01;99510.75;;;7.76;67.69
46756;BME280;32506;52.826;-1.192;2023-12-29T02:32:28;99516.09;;;7.76;67.58
46756;BME280;32506;52.826;-1.192;2023-12-29T02:34:55;99520.59;;;7.75;67.57
46756;BME280;32506;52.826;-1.192;2023-12-29T02:37:21;99522.66;;;7.73;67.46
46756;BME280;32506;52.826;-1.192;2023-12-29T02:39:48;99515.50;;;7.73;67.20
46756;BME280;32506;52.826;-1.192;2023-12-29T02:42:13;99517.34;;;7.73;67.20
46756;BME280;32506;52.826;-1.192;2023-12-29T02:44:39;99519.19;;;7.72;67.54
46756;BME280;32506;52.826;-1.192;2023-12-29T02:47:04;99515.69;;;7.72;67.31
46756;BME280;32506;52.826;-1.192;2023-12-29T02:49:30;99513.88;;;7.72;67.52
46756;BME280;32506;52.826;-1.192;2023-12-29T02:51:55;99521.63;;;7.74;67.49
46756;BME280;32506;52.826;-1.192;2023-12-29T02:54:21;99519.19;;;7.72;68.08
46756;BME280;32506;52.826;-1.192;2023-12-29T02:56:46;99512.00;;;7.73;67.80
46756;BME280;32506;52.826;-1.192;2023-12-29T02:59:12;99512.00;;;7.73;68.24
46756;BME280;32506;52.826;-1.192;2023-12-29T03:01:38;99520.59;;;7.75;68.01
46756;BME280;32506;52.826;-1.192;2023-12-29T03:04:03;99502.22;;;7.73;67.93
46756;BME280;32506;52.826;-1.192;2023-12-29T03:06:29;99504.66;;;7.75;68.30
46756;BME280;32506;52.826;-1.192;2023-12-29T03:08:54;99503.59;;;7.76;68.14
46756;BME280;32506;52.826;-1.192;2023-12-29T03:11:20;99504.66;;;7.75;68.03
46756;BME280;32506;52.826;-1.192;2023-12-29T03:13:45;99508.09;;;7.76;68.45
46756;BME280;32506;52.826;-1.192;2023-12-29T03:16:11;99498.28;;;7.76;68.33
46756;BME280;32506;52.826;-1.192;2023-12-29T03:18:36;99508.91;;;7.76;68.03
46756;BME280;32506;52.826;-1.192;2023-12-29T03:21:05;99509.75;;;7.77;68.16
46756;BME280;32506;52.826;-1.192;2023-12-29T03:23:31;99505.22;;;7.77;68.24
46756;BME280;32506;52.826;-1.192;2023-12-29T03:25:56;99517.50;;;7.78;68.28
46756;BME280;32506;52.826;-1.192;2023-12-29T03:28:22;99507.66;;;7.79;68.01
46756;BME280;32506;52.826;-1.192;2023-12-29T03:30:47;99508.72;;;7.78;68.11
46756;BME280;32506;52.826;-1.192;2023-12-29T03:33:12;99509.50;;;7.78;67.97
46756;BME280;32506;52.826;-1.192;2023-12-29T03:35:38;99519.34;;;7.78;67.71
46756;BME280;32506;52.826;-1.192;2023-12-29T03:38:04;99501.75;;;7.77;67.81
46756;BME280;32506;52.826;-1.192;2023-12-29T03:40:29;99509.75;;;7.77;67.61
46756;BME280;32506;52.826;-1.192;2023-12-29T03:42:55;99507.88;;;7.77;67.46
46756;BME280;32506;52.826;-1.192;2023-12-29T03:45:20;99502.78;;;7.76;67.13
46756;BME280;32506;52.826;-1.192;2023-12-29T03:47:45;99488.69;;;7.75;67.20
46756;BME280;32506;52.826;-1.192;2023-12-29T03:50:11;99495.03;;;7.74;66.98
46756;BME280;32506;52.826;-1.192;2023-12-29T03:52:36;99500.56;;;7.72;67.07
46756;BME280;32506;52.826;-1.192;2023-12-29T03:55:02;99506.91;;;7.71;66.93
46756;BME280;32506;52.826;-1.192;2023-12-29T03:57:27;99496.50;;;7.70;66.90
46756;BME280;32506;52.826;-1.192;2023-12-29T03:59:53;99501.00;;;7.69;67.01
46756;BME280;32506;52.826;-1.192;2023-12-29T04:02:18;99496.72;;;7.68;66.83
46756;BME280;32506;52.826;-1.192;2023-12-29T04:04:44;99504.09;;;7.66;66.64
46756;BME280;32506;52.826;-1.192;2023-12-29T04:07:09;99499.00;;;7.65;66.96
46756;BME280;32506;52.826;-1.192;2023-12-29T04:09:34;99501.66;;;7.65;66.77
46756;BME280;32506;52.826;-1.192;2023-12-29T04:12:00;99503.75;;;7.63;66.69
46756;BME280;32506;52.826;-1.192;2023-12-29T04:14:25;99510.31;;;7.60;66.94
46756;BME280;32506;52.826;-1.192;2023-12-29T04:16:51;99514.00;;;7.59;66.43
46756;BME280;32506;52.826;-1.192;2023-12-29T04:19:16;99515.25;;;7.56;66.87
46756;BME280;32506;52.826;-1.192;2023-12-29T04:21:41;99514.44;;;7.56;66.43
46756;BME280;32506;52.826;-1.192;2023-12-29T04:24:07;99511.19;;;7.54;66.64
46756;BME280;32506;52.826;-1.192;2023-12-29T04:26:36;99516.72;;;7.52;66.29
46756;BME280;32506;52.826;-1.192;2023-12-29T04:29:02;99527.59;;;7.51;66.12
46756;BME280;32506;52.826;-1.192;2023-12-29T04:31:27;99520.84;;;7.48;66.71
46756;BME280;32506;52.826;-1.192;2023-12-29T04:33:53;99519.44;;;7.46;66.52
46756;BME280;32506;52.826;-1.192;2023-12-29T04:36:18;99514.34;;;7.44;66.01
46756;BME280;32506;52.826;-1.192;2023-12-29T04:38:44;99511.06;;;7.42;66.37
46756;BME280;32506;52.826;-1.192;2023-12-29T04:41:12;99522.72;;;7.41;66.19
46756;BME280;32506;52.826;-1.192;2023-12-29T04:43:38;99531.97;;;7.38;65.97
46756;BME280;32506;52.826;-1.192;2023-12-29T04:46:03;99521.53;;;7.37;65.98
46756;BME280;32506;52.826;-1.192;2023-12-29T04:48:29;99529.75;;;7.35;66.48
46756;BME280;32506;52.826;-1.192;2023-12-29T04:50:54;99516.91;;;7.32;65.97
46756;BME280;32506;52.826;-1.192;2023-12-29T04:53:20;99520.56;;;7.31;66.38
46756;BME280;32506;52.826;-1.192;2023-12-29T04:55:45;99522.66;;;7.29;65.67
46756;BME280;32506;52.826;-1.192;2023-12-29T04:58:10;99522.84;;;7.28;66.00
46756;BME280;32506;52.826;-1.192;2023-12-29T05:00:36;99524.09;;;7.25;66.07
46756;BME280;32506;52.826;-1.192;2023-12-29T05:03:01;99512.66;;;7.25;65.53
46756;BME280;32506;52.826;-1.192;2023-12-29T05:05:27;99508.00;;;7.20;65.63
46756;BME280;32506;52.826;-1.192;2023-12-29T05:07:52;99511.69;;;7.19;65.72
46756;BME280;32506;52.826;-1.192;2023-12-29T05:10:17;99507.41;;;7.18;65.74
46756;BME280;32506;52.826;-1.192;2023-12-29T05:12:43;99501.50;;;7.16;65.77
46756;BME280;32506;52.826;-1.192;2023-12-29T05:15:08;99508.84;;;7.14;66.09
46756;BME280;32506;52.826;-1.192;2023-12-29T05:17:34;99501.91;;;7.13;65.59
46756;BME280;32506;52.826;-1.192;2023-12-29T05:19:59;99492.53;;;7.10;65.84
46756;BME280;32506;52.826;-1.192;2023-12-29T05:22:25;99496.22;;;7.09;65.78
46756;BME280;32506;52.826;-1.192;2023-12-29T05:24:50;99497.25;;;7.08;66.36
46756;BME280;32506;52.826;-1.192;2023-12-29T05:27:16;99519.53;;;7.07;65.73
46756;BME280;32506;52.826;-1.192;2023-12-29T05:29:41;99513.66;;;7.05;65.96
46756;BME280;32506;52.826;-1.192;2023-12-29T05:32:07;99515.69;;;7.03;65.55
46756;BME280;32506;52.826;-1.192;2023-12-29T05:34:33;99532.66;;;7.02;66.17
46756;BME280;32506;52.826;-1.192;2023-12-29T05:36:59;99534.50;;;7.01;65.90
46756;BME280;32506;52.826;-1.192;2023-12-29T05:39:24;99532.28;;;6.98;65.86
46756;BME280;32506;52.826;-1.192;2023-12-29T05:41:50;99537.59;;;6.98;65.88
46756;BME280;32506;52.826;-1.192;2023-12-29T05:44:15;99537.78;;;6.97;65.89
46756;BME280;32506;52.826;-1.192;2023-12-29T05:46:41;99538.22;;;6.94;65.88
46756;BME280;32506;52.826;-1.192;2023-12-29T05:49:06;99541.91;;;6.93;65.91
46756;BME280;32506;52.826;-1.192;2023-12-29T05:51:31;99531.50;;;6.91;65.80
46756;BME280;32506;52.826;-1.192;2023-12-29T05:53:57;99528.25;;;6.89;65.97
46756;BME280;32506;52.826;-1.192;2023-12-29T05:56:22;99543.34;;;6.88;66.04
46756;BME280;32506;52.826;-1.192;2023-12-29T05:58:48;99527.06;;;6.85;65.89
46756;BME280;32506;52.826;-1.192;2023-12-29T06:01:13;99527.25;;;6.83;65.90
46756;BME280;32506;52.826;-1.192;2023-12-29T06:03:39;99541.56;;;6.82;65.87
46756;BME280;32506;52.826;-1.192;2023-12-29T06:06:04;99531.13;;;6.81;65.83
46756;BME280;32506;52.826;-1.192;2023-12-29T06:08:30;99539.31;;;6.79;65.76
46756;BME280;32506;52.826;-1.192;2023-12-29T06:10:55;99537.91;;;6.77;65.43
46756;BME280;32506;52.826;-1.192;2023-12-29T06:13:22;99526.47;;;6.76;65.98
46756;BME280;32506;52.826;-1.192;2023-12-29T06:15:48;99531.19;;;6.74;65.94
46756;BME280;32506;52.826;-1.192;2023-12-29T06:18:13;99526.09;;;6.72;65.77
46756;BME280;32506;52.826;-1.192;2023-12-29T06:20:39;99532.44;;;6.71;65.91
46756;BME280;32506;52.826;-1.192;2023-12-29T06:23:04;99540.59;;;6.70;65.61
46756;BME280;32506;52.826;-1.192;2023-12-29T06:25:30;99534.50;;;6.69;65.72
46756;BME280;32506;52.826;-1.192;2023-12-29T06:27:55;99540.22;;;6.66;65.88
46756;BME280;32506;52.826;-1.192;2023-12-29T06:30:21;99544.72;;;6.66;65.69
46756;BME280;32506;52.826;-1.192;2023-12-29T06:32:46;99560.06;;;6.64;65.40
46756;BME280;32506;52.826;-1.192;2023-12-29T06:35:12;99562.09;;;6.62;65.42
46756;BME280;32506;52.826;-1.192;2023-12-29T06:37:39;99555.97;;;6.61;65.76
46756;BME280;32506;52.826;-1.192;2023-12-29T06:40:05;99576.59;;;6.59;65.83
46756;BME280;32506;52.826;-1.192;2023-12-29T06:42:31;99567.84;;;6.59;65.57
46756;BME280;32506;52.826;-1.192;2023-12-29T06:44:57;99577.03;;;6.56;65.61
46756;BME280;32506;52.826;-1.192;2023-12-29T06:47:22;99581.75;;;6.54;66.04
46756;BME280;32506;52.826;-1.192;2023-12-29T06:49:48;99579.09;;;6.54;65.81
46756;BME280;32506;52.826;-1.192;2023-12-29T06:52:13;99586.44;;;6.52;65.16
46756;BME280;32506;52.826;-1.192;2023-12-29T06:54:39;99583.16;;;6.50;65.58
46756;BME280;32506;52.826;-1.192;2023-12-29T06:57:04;99590.34;;;6.49;65.78
46756;BME280;32506;52.826;-1.192;2023-12-29T06:59:30;99590.53;;;6.48;65.36
46756;BME280;32506;52.826;-1.192;2023-12-29T07:01:56;99591.56;;;6.47;65.57
46756;BME280;32506;52.826;-1.192;2023-12-29T07:04:21;99588.31;;;6.45;65.61
46756;BME280;32506;52.826;-1.192;2023-12-29T07:06:47;99597.31;;;6.44;65.05
46756;BME280;32506;52.826;-1.192;2023-12-29T07:09:12;99586.91;;;6.42;65.31
46756;BME280;32506;52.826;-1.192;2023-12-29T07:11:39;99594.25;;;6.40;65.24
46756;BME280;32506;52.826;-1.192;2023-12-29T07:14:04;99604.84;;;6.40;65.64
46756;BME280;32506;52.826;-1.192;2023-12-29T07:16:29;99603.44;;;6.37;65.22
46756;BME280;32506;52.826;-1.192;2023-12-29T07:18:55;99597.31;;;6.37;65.23
46756;BME280;32506;52.826;-1.192;2023-12-29T07:21:20;99600.19;;;6.35;65.17
46756;BME280;32506;52.826;-1.192;2023-12-29T07:23:46;99594.25;;;6.33;64.89
46756;BME280;32506;52.826;-1.192;2023-12-29T07:26:11;99597.13;;;6.32;65.66
46756;BME280;32506;52.826;-1.192;2023-12-29T07:28:39;99593.84;;;6.30;65.20
46756;BME280;32506;52.826;-1.192;2023-12-29T07:31:05;99601.81;;;6.30;64.95
46756;BME280;32506;52.826;-1.192;2023-12-29T07:33:31;99604.69;;;6.28;65.21
46756;BME280;32506;52.826;-1.192;2023-12-29T07:35:56;99610.19;;;6.27;65.38
46756;BME280;32506;52.826;-1.192;2023-12-29T07:38:22;99613.06;;;6.25;65.39
46756;BME280;32506;52.826;-1.192;2023-12-29T07:40:47;99617.78;;;6.23;65.26
46756;BME280;32506;52.826;-1.192;2023-12-29T07:43:13;99617.78;;;6.23;65.27
46756;BME280;32506;52.826;-1.192;2023-12-29T07:45:39;99618.81;;;6.22;65.25
46756;BME280;32506;52.826;-1.192;2023-12-29T07:48:05;99610.22;;;6.20;65.30
46756;BME280;32506;52.826;-1.192;2023-12-29T07:50:30;99615.75;;;6.18;65.74
46756;BME280;32506;52.826;-1.192;2023-12-29T07:52:55;99614.09;;;6.17;65.44
46756;BME280;32506;52.826;-1.192;2023-12-29T07:55:21;99629.22;;;6.17;65.39
46756;BME280;32506;52.826;-1.192;2023-12-29T07:57:46;99640.84;;;6.16;65.27
46756;BME280;32506;52.826;-1.192;2023-12-29T08:00:16;99642.69;;;6.15;65.29
46756;BME280;32506;52.826;-1.192;2023-12-29T08:02:42;99640.25;;;6.14;65.66
46756;BME280;32506;52.826;-1.192;2023-12-29T08:05:07;99643.91;;;6.13;65.31
46756;BME280;32506;52.826;-1.192;2023-12-29T08:07:36;99652.09;;;6.11;65.74
46756;BME280;32506;52.826;-1.192;2023-12-29T08:10:04;99651.47;;;6.09;65.49
46756;BME280;32506;52.826;-1.192;2023-12-29T08:12:30;99648.81;;;6.09;65.54
46756;BME280;32506;52.826;-1.192;2023-12-29T08:14:55;99657.78;;;6.08;65.30
46756;BME280;32506;52.826;-1.192;2023-12-29T08:17:21;99656.97;;;6.08;65.37
46756;BME280;32506;52.826;-1.192;2023-12-29T08:19:47;99659.84;;;6.06;65.38
46756;BME280;32506;52.826;-1.192;2023-12-29T08:22:13;99650.25;;;6.05;65.61
46756;BME280;32506;52.826;-1.192;2023-12-29T08:24:40;99645.16;;;6.03;65.55
46756;BME280;32506;52.826;-1.192;2023-12-29T08:27:07;99658.41;;;6.03;65.58
46756;BME280;32506;52.826;-1.192;2023-12-29T08:29:33;99660.44;;;6.01;65.55
46756;BME280;32506;52.826;-1.192;2023-12-29T08:31:58;99654.34;;;6.01;65.62
46756;BME280;32506;52.826;-1.192;2023-12-29T08:34:24;99665.97;;;6.00;65.69
46756;BME280;32506;52.826;-1.192;2023-12-29T08:36:49;99669.44;;;6.00;65.70
46756;BME280;32506;52.826;-1.192;2023-12-29T08:39:14;99673.91;;;6.00;65.56
46756;BME280;32506;52.826;-1.192;2023-12-29T08:41:40;99674.94;;;5.99;65.47
46756;BME280;32506;52.826;-1.192;2023-12-29T08:44:05;99679.59;;;5.97;65.77
46756;BME280;32506;52.826;-1.192;2023-12-29T08:46:31;99685.94;;;5.96;65.41
46756;BME280;32506;52.826;-1.192;2023-12-29T08:48:56;99687.56;;;5.97;65.99
46756;BME280;32506;52.826;-1.192;2023-12-29T08:51:22;99688.56;;;5.96;65.86
46756;BME280;32506;52.826;-1.192;2023-12-29T08:53:47;99689.41;;;5.96;66.00
46756;BME280;32506;52.826;-1.192;2023-12-29T08:56:13;99686.75;;;5.96;65.82
46756;BME280;32506;52.826;-1.192;2023-12-29T08:58:39;99690.44;;;5.95;66.02
46756;BME280;32506;52.826;-1.192;2023-12-29T09:01:05;99684.09;;;5.96;66.31
46756;BME280;32506;52.826;-1.192;2023-12-29T09:03:30;99683.06;;;5.97;66.07
46756;BME280;32506;52.826;-1.192;2023-12-29T09:05:55;99687.38;;;5.98;65.72
46756;BME280;32506;52.826;-1.192;2023-12-29T09:08:22;99696.97;;;5.99;66.38
46756;BME280;32506;52.826;-1.192;2023-12-29T09:10:47;99711.88;;;6.00;66.36
46756;BME280;32506;52.826;-1.192;2023-12-29T09:13:13;99717.78;;;6.02;66.35
46756;BME280;32506;52.826;-1.192;2023-12-29T09:15:38;99732.69;;;6.03;66.59
46756;BME280;32506;52.826;-1.192;2023-12-29T09:18:04;99723.72;;;6.04;66.00
46756;BME280;32506;52.826;-1.192;2023-12-29T09:20:29;99719.84;;;6.07;66.78
46756;BME280;32506;52.826;-1.192;2023-12-29T09:22:56;99711.69;;;6.09;66.47
46756;BME280;32506;52.826;-1.192;2023-12-29T09:25:21;99716.56;;;6.12;66.86
46756;BME280;32506;52.826;-1.192;2023-12-29T09:27:47;99715.13;;;6.16;66.70
46756;BME280;32506;52.826;-1.192;2023-12-29T09:30:14;99718.00;;;6.21;66.80
46756;BME280;32506;52.826;-1.192;2023-12-29T09:32:40;99731.69;;;6.25;66.49
46756;BME280;32506;52.826;-1.192;2023-12-29T09:35:05;99734.72;;;6.28;66.53
46756;BME280;32506;52.826;-1.192;2023-12-29T09:37:31;99724.50;;;6.32;66.38
46756;BME280;32506;52.826;-1.192;2023-12-29T09:39:56;99732.91;;;6.35;67.07
46756;BME280;32506;52.826;-1.192;2023-12-29T09:42:22;99733.28;;;6.39;67.34
46756;BME280;32506;52.826;-1.192;2023-12-29T09:44:51;99738.19;;;6.42;66.55
46756;BME280;32506;52.826;-1.192;2023-12-29T09:47:21;99742.28;;;6.45;67.35
46756;BME280;32506;52.826;-1.192;2023-12-29T09:49:51;99743.72;;;6.47;66.82
46756;BME280;32506;52.826;-1.192;2023-12-29T09:52:20;99734.69;;;6.48;67.59
46756;BME280;32506;52.826;-1.192;2023-12-29T09:54:47;99731.03;;;6.49;67.51
46756;BME280;32506;52.826;-1.192;2023-12-29T09:57:13;99747.56;;;6.51;67.37
46756;BME280;32506;52.826;-1.192;2023-12-29T09:59:40;99750.81;;;6.53;67.35
46756;BME280;32506;52.826;-1.192;2023-12-29T10:02:12;99757.78;;;6.54;67.75
46756;BME280;32506;52.826;-1.192;2023-12-29T10:04:38;99754.91;;;6.56;67.88
46756;BME280;32506;52.826;-1.192;2023-12-29T10:07:05;99769.63;;;6.59;67.97
46756;BME280;32506;52.826;-1.192;2023-12-29T10:09:33;99757.97;;;6.60;67.89
46756;BME280;32506;52.826;-1.192;2023-12-29T10:12:02;99773.69;;;6.61;67.84
46756;BME280;32506;52.826;-1.192;2023-12-29T10:14:41;99764.50;;;6.64;67.89
46756;BME280;32506;52.826;-1.192;2023-12-29T10:17:19;99771.47;;;6.65;67.75
46756;BME280;32506;52.826;-1.192;2023-12-29T10:19:57;99761.44;;;6.67;67.89
46756;BME280;32506;52.826;-1.192;2023-12-29T10:22:48;99762.06;;;6.69;67.62
46756;BME280;32506;52.826;-1.192;2023-12-29T10:25:17;99751.22;;;6.70;68.07
46756;BME280;32506;52.826;-1.192;2023-12-29T10:27:42;99751.00;;;6.72;68.37
46756;BME280;32506;52.826;-1.192;2023-12-29T10:30:10;99764.88;;;6.74;67.83
46756;BME280;32506;52.826;-1.192;2023-12-29T10:32:37;99775.31;;;6.76;67.83
46756;BME280;32506;52.826;-1.192;2023-12-29T10:35:09;99774.09;;;6.78;67.70
46756;BME280;32506;52.826;-1.192;2023-12-29T10:37:35;99771.22;;;6.80;67.95
46756;BME280;32506;52.826;-1.192;2023-12-29T10:40:00;99777.97;;;6.82;67.63
46756;BME280;32506;52.826;-1.192;2023-12-29T10:42:26;99781.22;;;6.84;68.18
46756;BME280;32506;52.826;-1.192;2023-12-29T10:45:12;99785.28;;;6.87;68.35
46756;BME280;32506;52.826;-1.192;2023-12-29T10:47:43;99793.88;;;6.89;68.10
46756;BME280;32506;52.826;-1.192;2023-12-29T10:50:09;99785.69;;;6.91;67.77
46756;BME280;32506;52.826;-1.192;2023-12-29T10:52:34;99787.94;;;6.94;67.92
46756;BME280;32506;52.826;-1.192;2023-12-29T10:55:06;99777.94;;;6.96;67.74
46756;BME280;32506;52.826;-1.192;2023-12-29T10:57:32;99790.78;;;6.99;67.99
46756;BME280;32506;52.826;-1.192;2023-12-29T10:59:58;99780.16;;;6.99;68.13
46756;BME280;32506;52.826;-1.192;2023-12-29T11:02:25;99787.50;;;7.03;67.71
46756;BME280;32506;52.826;-1.192;2023-12-29T11:04:51;99778.72;;;7.03;68.03
46756;BME280;32506;52.826;-1.192;2023-12-29T11:07:32;99783.38;;;7.08;67.69
46756;BME280;32506;52.826;-1.192;2023-12-29T11:10:01;99781.34;;;7.10;67.85
46756;BME280;32506;52.826;-1.192;2023-12-29T11:12:30;99790.75;;;7.12;67.59
46756;BME280;32506;52.826;-1.192;2023-12-29T11:14:57;99791.56;;;7.13;67.86
46756;BME280;32506;52.826;-1.192;2023-12-29T11:17:25;99766.41;;;7.15;67.84
46756;BME280;32506;52.826;-1.192;2023-12-29T11:19:52;99772.34;;;7.17;67.67
46756;BME280;32506;52.826;-1.192;2023-12-29T11:22:18;99782.53;;;7.20;68.04
46756;BME280;32506;52.826;-1.192;2023-12-29T11:24:48;99781.53;;;7.21;68.21
46756;BME280;32506;52.826;-1.192;2023-12-29T11:27:14;99766.16;;;7.23;68.15
46756;BME280;32506;52.826;-1.192;2023-12-29T11:29:41;99775.78;;;7.25;67.67
46756;BME280;32506;52.826;-1.192;2023-12-29T11:32:12;99770.25;;;7.26;67.61
46756;BME280;32506;52.826;-1.192;2023-12-29T11:34:53;99767.19;;;7.29;67.74
46756;BME280;32506;52.826;-1.192;2023-12-29T11:40:21;99754.28;;;7.33;67.51
46756;BME280;32506;52.826;-1.192;2023-12-29T11:42:53;99756.94;;;7.33;67.83
46756;BME280;32506;52.826;-1.192;2023-12-29T11:45:28;99759.19;;;7.36;68.15
46756;BME280;32506;52.826;-1.192;2023-12-29T11:47:54;99751.81;;;7.38;68.06
46756;BME280;32506;52.826;-1.192;2023-12-29T11:50:35;99751.59;;;7.39;67.93
46756;BME280;32506;52.826;-1.192;2023-12-29T11:53:02;99762.84;;;7.42;67.71
46756;BME280;32506;52.826;-1.192;2023-12-29T11:55:46;99738.47;;;7.45;67.97
46756;BME280;32506;52.826;-1.192;2023-12-29T11:58:25;99750.75;;;7.46;67.75
46756;BME280;32506;52.826;-1.192;2023-12-29T12:00:53;99749.72;;;7.47;67.48
46756;BME280;32506;52.826;-1.192;2023-12-29T12:03:26;99761.78;;;7.49;67.39
46756;BME280;32506;52.826;-1.192;2023-12-29T12:05:53;99760.50;;;7.52;67.86
46756;BME280;32506;52.826;-1.192;2023-12-29T12:08:35;99753.97;;;7.54;67.52
46756;BME280;32506;52.826;-1.192;2023-12-29T12:13:54;99763.34;;;7.57;68.12
46756;BME280;32506;52.826;-1.192;2023-12-29T12:19:08;99761.09;;;7.61;67.93
46756;BME280;32506;52.826;-1.192;2023-12-29T12:21:35;99757.19;;;7.63;67.88
46756;BME280;32506;52.826;-1.192;2023-12-29T12:24:03;99752.06;;;7.68;67.95
46756;BME280;32506;52.826;-1.192;2023-12-29T12:26:30;99740.19;;;7.71;68.22
46756;BME280;32506;52.826;-1.192;2023-12-29T12:28:56;99748.31;;;7.76;67.88
46756;BME280;32506;52.826;-1.192;2023-12-29T12:31:22;99751.31;;;7.86;68.39
46756;BME280;32506;52.826;-1.192;2023-12-29T12:33:57;99753.56;;;8.15;69.40
46756;BME280;32506;52.826;-1.192;2023-12-29T12:36:23;99743.44;;;8.55;68.26
46756;BME280;32506;52.826;-1.192;2023-12-29T12:38:54;99745.38;;;8.85;67.17
46756;BME280;32506;52.826;-1.192;2023-12-29T12:41:21;99732.53;;;9.13;67.01
46756;BME280;32506;52.826;-1.192;2023-12-29T12:44:10;99728.81;;;9.63;66.61
46756;BME280;32506;52.826;-1.192;2023-12-29T12:49:07;99722.09;;;10.62;64.64
46756;BME280;32506;52.826;-1.192;2023-12-29T12:51:33;99736.22;;;11.10;63.61
46756;BME280;32506;52.826;-1.192;2023-12-29T12:53:59;99733.50;;;11.50;62.68
46756;BME280;32506;52.826;-1.192;2023-12-29T12:56:26;99728.09;;;12.08;62.04
46756;BME280;32506;52.826;-1.192;2023-12-29T12:58:55;99725.06;;;12.78;60.49
46756;BME280;32506;52.826;-1.192;2023-12-29T13:01:21;99703.66;;;13.27;58.80
46756;BME280;32506;52.826;-1.192;2023-12-29T13:03:47;99705.41;;;13.38;57.99
46756;BME280;32506;52.826;-1.192;2023-12-29T13:06:13;99711.66;;;13.22;58.23
46756;BME280;32506;52.826;-1.192;2023-12-29T13:08:39;99711.13;;;12.98;58.87
46756;BME280;32506;52.826;-1.192;2023-12-29T13:11:04;99709.72;;;12.73;59.58